createdAt,value
2018-11-23T00:00:42.782Z,1006.27
2018-11-23T00:01:42.770Z,1006.28
2018-11-23T00:02:42.733Z,1006.25
2018-11-23T00:03:42.718Z,1006.27
2018-11-23T00:04:42.709Z,1006.25
2018-11-23T00:05:42.701Z,1006.30
2018-11-23T00:06:42.720Z,1006.30
2018-11-23T00:07:42.745Z,1006.32
2018-11-23T00:08:42.666Z,1006.29
2018-11-23T00:09:42.658Z,1006.29
2018-11-23T00:10:42.650Z,1006.35
2018-11-23T00:11:42.642Z,1006.37
2018-11-23T00:12:42.660Z,1006.32
2018-11-23T00:13:42.648Z,1006.33
2018-11-23T00:14:42.610Z,1006.32
2018-11-23T00:15:42.601Z,1006.32
2018-11-23T00:16:42.592Z,1006.34
2018-11-23T00:17:42.581Z,1006.36
2018-11-23T00:18:42.605Z,1006.39
2018-11-23T00:19:42.578Z,1006.37
2018-11-23T00:20:42.551Z,1006.37
2018-11-23T00:21:42.539Z,1006.33
2018-11-23T00:22:42.529Z,1006.39
2018-11-23T00:23:42.518Z,1006.35
2018-11-23T00:24:42.544Z,1006.37
2018-11-23T00:25:42.522Z,1006.43
2018-11-23T00:26:42.490Z,1006.35
2018-11-23T00:27:42.481Z,1006.43
2018-11-23T00:28:42.469Z,1006.47
2018-11-23T00:29:42.458Z,1006.44
2018-11-23T00:30:42.485Z,1006.43
2018-11-23T00:31:42.469Z,1006.49
2018-11-23T00:32:42.431Z,1006.48
2018-11-23T00:33:42.418Z,1006.52
2018-11-23T00:34:42.407Z,1006.56
2018-11-23T00:35:42.399Z,1006.58
2018-11-23T00:36:42.415Z,1006.55
2018-11-23T00:37:42.404Z,1006.61
2018-11-23T00:38:42.367Z,1006.55
2018-11-23T00:39:42.395Z,1006.55
2018-11-23T00:40:42.348Z,1006.56
2018-11-23T00:41:42.389Z,1006.60
2018-11-23T00:42:42.326Z,1006.58
2018-11-23T00:43:42.327Z,1006.66
2018-11-23T00:44:42.308Z,1006.71
2018-11-23T00:45:43.090Z,1006.67
2018-11-23T00:46:42.289Z,1006.70
2018-11-23T00:47:42.314Z,1006.75
2018-11-23T00:48:42.269Z,1006.71
2018-11-23T00:49:42.300Z,1006.71
2018-11-23T00:50:42.246Z,1006.70
2018-11-23T00:51:42.235Z,1006.75
2018-11-23T00:52:42.223Z,1006.70
2018-11-23T00:53:42.265Z,1006.75
2018-11-23T00:54:42.218Z,1006.74
2018-11-23T00:55:42.229Z,1006.73
2018-11-23T00:56:42.183Z,1006.71
2018-11-23T00:57:42.173Z,1006.73
2018-11-23T00:58:42.165Z,1006.77
2018-11-23T00:59:42.187Z,1006.75
2018-11-23T01:00:42.144Z,1006.82
2018-11-23T01:01:42.152Z,1006.77
2018-11-23T01:02:42.123Z,1006.79
2018-11-23T01:03:42.112Z,1006.81
2018-11-23T01:04:42.106Z,1006.76
2018-11-23T01:05:42.126Z,1006.77
2018-11-23T01:06:42.082Z,1006.77
2018-11-23T01:07:42.107Z,1006.78
2018-11-23T01:08:42.062Z,1006.81
2018-11-23T01:09:42.051Z,1006.75
2018-11-23T01:10:42.041Z,1006.73
2018-11-23T01:11:42.065Z,1006.77
2018-11-23T01:12:42.018Z,1006.71
2018-11-23T01:13:42.056Z,1006.74
2018-11-23T01:14:42.000Z,1006.74
2018-11-23T01:15:41.992Z,1006.71
2018-11-23T01:16:42.000Z,1006.72
2018-11-23T01:17:42.042Z,1006.72
2018-11-23T01:18:41.976Z,1006.69
2018-11-23T01:19:41.949Z,1006.74
2018-11-23T01:20:41.960Z,1006.73
2018-11-23T01:21:41.937Z,1006.67
2018-11-23T01:22:41.921Z,1006.75
2018-11-23T01:23:41.943Z,1006.74
2018-11-23T01:24:41.898Z,1006.75
2018-11-23T01:25:41.891Z,1006.71
2018-11-23T01:26:41.912Z,1006.73
2018-11-23T01:27:41.869Z,1006.79
2018-11-23T01:28:41.858Z,1006.77
2018-11-23T01:29:41.889Z,1006.81
2018-11-23T01:30:41.840Z,1006.76
2018-11-23T01:31:41.829Z,1006.73
2018-11-23T01:32:41.857Z,1006.73
2018-11-23T01:33:41.809Z,1006.75
2018-11-23T01:34:41.803Z,1006.70
2018-11-23T01:35:41.828Z,1006.71
2018-11-23T01:36:41.778Z,1006.72
2018-11-23T01:37:41.770Z,1006.72
2018-11-23T01:38:41.761Z,1006.72
2018-11-23T01:39:41.779Z,1006.70
2018-11-23T01:40:41.735Z,1006.69
2018-11-23T01:41:41.775Z,1006.64
2018-11-23T01:42:41.725Z,1006.65
2018-11-23T01:43:41.706Z,1006.66
2018-11-23T01:44:41.696Z,1006.72
2018-11-23T01:45:41.706Z,1006.71
2018-11-23T01:46:41.681Z,1006.74
2018-11-23T01:47:41.699Z,1006.76
2018-11-23T01:48:41.663Z,1006.69
2018-11-23T01:49:41.648Z,1006.72
2018-11-23T01:50:41.635Z,1006.68
2018-11-23T01:51:41.665Z,1006.72
2018-11-23T01:52:41.624Z,1006.69
2018-11-23T01:53:42.007Z,1006.66
2018-11-23T01:54:41.617Z,1006.70
2018-11-23T01:55:41.602Z,1006.67
2018-11-23T01:56:41.590Z,1006.67
2018-11-23T01:57:41.634Z,1006.69
2018-11-23T01:58:41.572Z,1006.69
2018-11-23T01:59:41.601Z,1006.65
2018-11-23T02:00:41.542Z,1006.67
2018-11-23T02:01:41.540Z,1006.62
2018-11-23T02:02:41.546Z,1006.60
2018-11-23T02:03:41.577Z,1006.61
2018-11-23T02:04:41.517Z,1006.59
2018-11-23T02:05:41.548Z,1006.65
2018-11-23T02:06:41.484Z,1006.62
2018-11-23T02:07:41.481Z,1006.61
2018-11-23T02:08:41.469Z,1006.62
2018-11-23T02:09:41.474Z,1006.60
2018-11-23T02:10:41.462Z,1006.58
2018-11-23T02:11:41.478Z,1006.58
2018-11-23T02:12:41.428Z,1006.62
2018-11-23T02:13:41.715Z,1006.59
2018-11-23T02:14:41.409Z,1006.60
2018-11-23T02:15:41.482Z,1006.57
2018-11-23T02:16:41.404Z,1006.57
2018-11-23T02:17:41.444Z,1006.55
2018-11-23T02:18:41.375Z,1006.54
2018-11-23T02:19:41.357Z,1006.55
2018-11-23T02:20:41.580Z,1006.52
2018-11-23T02:21:41.350Z,1006.51
2018-11-23T02:22:41.338Z,1006.54
2018-11-23T02:23:41.349Z,1006.53
2018-11-23T02:24:41.546Z,1006.51
2018-11-23T02:25:41.309Z,1006.57
2018-11-23T02:26:41.448Z,1006.55
2018-11-23T02:27:41.286Z,1006.53
2018-11-23T02:28:41.258Z,1006.55
2018-11-23T02:29:41.320Z,1006.51
2018-11-23T02:30:41.250Z,1006.54
2018-11-23T02:31:41.229Z,1006.51
2018-11-23T02:32:41.303Z,1006.55
2018-11-23T02:33:41.215Z,1006.51
2018-11-23T02:34:41.196Z,1006.46
2018-11-23T02:35:41.276Z,1006.47
2018-11-23T02:36:41.195Z,1006.40
2018-11-23T02:37:41.173Z,1006.43
2018-11-23T02:38:41.178Z,1006.40
2018-11-23T02:39:41.165Z,1006.41
2018-11-23T02:40:41.149Z,1006.39
2018-11-23T02:41:41.198Z,1006.37
2018-11-23T02:42:41.133Z,1006.39
2018-11-23T02:43:41.122Z,1006.37
2018-11-23T02:44:41.101Z,1006.38
2018-11-23T02:45:41.091Z,1006.46
2018-11-23T02:46:41.085Z,1006.41
2018-11-23T02:47:41.147Z,1006.46
2018-11-23T02:48:41.066Z,1006.45
2018-11-23T02:49:41.066Z,1006.43
2018-11-23T02:50:41.045Z,1006.42
2018-11-23T02:51:41.038Z,1006.41
2018-11-23T02:52:41.020Z,1006.43
2018-11-23T02:53:41.134Z,1006.42
2018-11-23T02:54:40.997Z,1006.43
2018-11-23T02:55:40.998Z,1006.40
2018-11-23T02:56:40.980Z,1006.39
2018-11-23T02:57:40.972Z,1006.38
2018-11-23T02:58:40.963Z,1006.36
2018-11-23T02:59:41.028Z,1006.38
2018-11-23T03:00:40.948Z,1006.39
2018-11-23T03:01:40.933Z,1006.30
2018-11-23T03:02:40.917Z,1006.32
2018-11-23T03:03:40.908Z,1006.32
2018-11-23T03:04:40.895Z,1006.23
2018-11-23T03:05:40.981Z,1006.24
2018-11-23T03:06:40.878Z,1006.25
2018-11-23T03:07:40.877Z,1006.26
2018-11-23T03:08:40.856Z,1006.27
2018-11-23T03:09:40.865Z,1006.21
2018-11-23T03:10:40.839Z,1006.21
2018-11-23T03:11:40.898Z,1006.20
2018-11-23T03:12:40.819Z,1006.22
2018-11-23T03:13:40.809Z,1006.21
2018-11-23T03:14:40.809Z,1006.20
2018-11-23T03:15:40.785Z,1006.23
2018-11-23T03:16:40.794Z,1006.20
2018-11-23T03:17:41.004Z,1006.24
2018-11-23T03:18:40.758Z,1006.15
2018-11-23T03:19:40.734Z,1006.19
2018-11-23T03:20:40.729Z,1006.17
2018-11-23T03:21:40.717Z,1006.19
2018-11-23T03:22:40.718Z,1006.13
2018-11-23T03:23:40.761Z,1006.10
2018-11-23T03:24:40.694Z,1006.05
2018-11-23T03:25:40.685Z,1006.07
2018-11-23T03:26:40.672Z,1006.05
2018-11-23T03:27:40.649Z,1005.99
2018-11-23T03:28:40.651Z,1006.00
2018-11-23T03:29:40.699Z,1006.04
2018-11-23T03:30:40.638Z,1005.99
2018-11-23T03:31:40.619Z,1006.01
2018-11-23T03:32:40.611Z,1006.03
2018-11-23T03:33:40.597Z,1006.03
2018-11-23T03:34:40.592Z,1005.96
2018-11-23T03:35:40.667Z,1005.93
2018-11-23T03:36:40.564Z,1005.97
2018-11-23T03:37:40.563Z,1006.00
2018-11-23T03:38:40.555Z,1005.95
2018-11-23T03:39:40.538Z,1005.94
2018-11-23T03:40:40.528Z,1005.94
2018-11-23T03:41:40.600Z,1005.98
2018-11-23T03:42:40.511Z,1006.03
2018-11-23T03:43:40.501Z,1005.98
2018-11-23T03:44:40.490Z,1005.94
2018-11-23T03:45:40.475Z,1005.97
2018-11-23T03:46:40.464Z,1005.97
2018-11-23T03:47:40.509Z,1005.90
2018-11-23T03:48:40.445Z,1005.96
2018-11-23T03:49:40.432Z,1005.94
2018-11-23T03:50:40.428Z,1006.00
2018-11-23T03:51:40.426Z,1005.97
2018-11-23T03:52:40.410Z,1005.96
2018-11-23T03:53:40.492Z,1005.94
2018-11-23T03:54:40.397Z,1005.94
2018-11-23T03:55:40.395Z,1006.00
2018-11-23T03:56:40.367Z,1005.95
2018-11-23T03:57:40.356Z,1006.01
2018-11-23T03:58:40.348Z,1005.96
2018-11-23T03:59:40.407Z,1006.03
2018-11-23T04:00:40.319Z,1006.02
2018-11-23T04:01:40.317Z,1006.02
2018-11-23T04:02:40.347Z,1005.94
2018-11-23T04:03:40.277Z,1005.99
2018-11-23T04:04:40.289Z,1005.98
2018-11-23T04:05:40.340Z,1005.97
2018-11-23T04:06:40.269Z,1005.94
2018-11-23T04:07:40.253Z,1006.03
2018-11-23T04:08:40.245Z,1006.06
2018-11-23T04:09:40.240Z,1005.99
2018-11-23T04:10:40.256Z,1006.01
2018-11-23T04:11:40.254Z,1006.01
2018-11-23T04:12:40.211Z,1005.98
2018-11-23T04:13:40.195Z,1006.01
2018-11-23T04:14:40.191Z,1005.98
2018-11-23T04:15:40.175Z,1005.97
2018-11-23T04:16:40.209Z,1005.97
2018-11-23T04:17:40.195Z,1005.96
2018-11-23T04:18:40.148Z,1005.94
2018-11-23T04:19:40.140Z,1006.02
2018-11-23T04:20:40.125Z,1006.00
2018-11-23T04:21:40.114Z,1005.96
2018-11-23T04:22:40.142Z,1006.02
2018-11-23T04:23:40.135Z,1005.96
2018-11-23T04:24:40.087Z,1005.91
2018-11-23T04:25:40.070Z,1005.94
2018-11-23T04:26:40.062Z,1005.92
2018-11-23T04:27:40.054Z,1005.90
2018-11-23T04:28:40.059Z,1005.93
2018-11-23T04:29:40.074Z,1005.89
2018-11-23T04:30:40.022Z,1005.83
2018-11-23T04:31:40.012Z,1005.86
2018-11-23T04:32:39.995Z,1005.87
2018-11-23T04:33:40.010Z,1005.92
2018-11-23T04:34:40.001Z,1005.86
2018-11-23T04:35:40.007Z,1005.89
2018-11-23T04:36:39.957Z,1005.91
2018-11-23T04:37:39.947Z,1005.88
2018-11-23T04:38:39.940Z,1005.87
2018-11-23T04:39:39.927Z,1005.88
2018-11-23T04:40:39.949Z,1005.91
2018-11-23T04:41:46.242Z,1005.85
2018-11-23T04:42:40.899Z,1005.85
2018-11-23T04:43:39.903Z,1005.89
2018-11-23T04:44:39.877Z,1005.94
2018-11-23T04:45:39.875Z,1005.95
2018-11-23T04:46:39.872Z,1005.92
2018-11-23T04:47:39.940Z,1005.95
2018-11-23T04:48:39.846Z,1005.95
2018-11-23T04:49:39.832Z,1005.97
2018-11-23T04:50:39.818Z,1005.96
2018-11-23T04:51:39.817Z,1005.98
2018-11-23T04:52:39.818Z,1005.99
2018-11-23T04:53:39.937Z,1006.01
2018-11-23T04:54:39.788Z,1005.98
2018-11-23T04:55:39.770Z,1006.00
2018-11-23T04:56:39.762Z,1005.96
2018-11-23T04:57:39.748Z,1005.97
2018-11-23T04:58:39.743Z,1005.98
2018-11-23T04:59:39.820Z,1006.00
2018-11-23T05:00:39.722Z,1005.97
2018-11-23T05:01:39.707Z,1005.97
2018-11-23T05:02:39.702Z,1005.95
2018-11-23T05:03:39.690Z,1005.93
2018-11-23T05:04:39.657Z,1005.93
2018-11-23T05:05:39.717Z,1006.00
2018-11-23T05:06:39.638Z,1005.95
2018-11-23T05:07:39.631Z,1005.95
2018-11-23T05:08:39.620Z,1005.99
2018-11-23T05:09:39.609Z,1005.92
2018-11-23T05:10:39.616Z,1005.99
2018-11-23T05:11:39.680Z,1005.98
2018-11-23T05:12:39.593Z,1006.01
2018-11-23T05:13:40.146Z,1006.00
2018-11-23T05:14:39.557Z,1006.00
2018-11-23T05:15:39.545Z,1005.99
2018-11-23T05:16:39.815Z,1005.94
2018-11-23T05:17:39.531Z,1006.00
2018-11-23T05:18:39.541Z,1006.07
2018-11-23T05:19:39.503Z,1006.00
2018-11-23T05:20:39.493Z,1006.03
2018-11-23T05:21:39.517Z,1006.05
2018-11-23T05:22:39.523Z,1006.10
2018-11-23T05:23:39.464Z,1006.06
2018-11-23T05:24:39.475Z,1006.10
2018-11-23T05:25:39.749Z,1006.10
2018-11-23T05:26:40.113Z,1006.12
2018-11-23T05:27:39.427Z,1006.12
2018-11-23T05:28:39.415Z,1006.07
2018-11-23T05:29:39.443Z,1006.10
2018-11-23T05:30:39.418Z,1006.12
2018-11-23T05:31:39.421Z,1006.09
2018-11-23T05:32:39.533Z,1006.10
2018-11-23T05:33:39.363Z,1006.11
2018-11-23T05:34:39.353Z,1006.14
2018-11-23T05:35:39.343Z,1006.08
2018-11-23T05:36:39.365Z,1006.07
2018-11-23T05:37:39.357Z,1006.09
2018-11-23T05:38:39.546Z,1006.07
2018-11-23T05:39:39.322Z,1006.01
2018-11-23T05:40:39.443Z,1006.02
2018-11-23T05:41:39.321Z,1006.02
2018-11-23T05:42:39.317Z,1006.05
2018-11-23T05:43:39.261Z,1005.99
2018-11-23T05:44:39.250Z,1005.99
2018-11-23T05:45:39.300Z,1005.99
2018-11-23T05:46:39.271Z,1006.01
2018-11-23T05:47:39.232Z,1005.99
2018-11-23T05:48:39.217Z,1005.95
2018-11-23T05:49:39.199Z,1005.96
2018-11-23T05:50:39.221Z,1006.02
2018-11-23T05:51:39.207Z,1005.93
2018-11-23T05:52:39.170Z,1005.97
2018-11-23T05:53:39.175Z,1005.93
2018-11-23T05:54:39.155Z,1005.88
2018-11-23T05:55:39.139Z,1005.91
2018-11-23T05:56:39.182Z,1005.94
2018-11-23T05:57:39.132Z,1005.92
2018-11-23T05:58:39.108Z,1005.91
2018-11-23T05:59:39.102Z,1005.94
2018-11-23T06:00:39.089Z,1005.96
2018-11-23T06:01:39.109Z,1005.93
2018-11-23T06:02:39.127Z,1005.93
2018-11-23T06:03:39.061Z,1005.85
2018-11-23T06:04:39.050Z,1005.87
2018-11-23T06:05:39.053Z,1005.93
2018-11-23T06:06:42.529Z,1005.87
2018-11-23T06:07:39.022Z,1005.86
2018-11-23T06:08:39.009Z,1005.88
2018-11-23T06:09:39.022Z,1005.86
2018-11-23T06:10:38.991Z,1005.88
2018-11-23T06:11:39.005Z,1005.86
2018-11-23T06:12:38.974Z,1005.88
2018-11-23T06:13:38.971Z,1005.87
2018-11-23T06:14:38.951Z,1005.86
2018-11-23T06:15:44.412Z,1005.81
2018-11-23T06:16:39.965Z,1005.88
2018-11-23T06:17:38.918Z,1005.86
2018-11-23T06:18:38.909Z,1005.80
2018-11-23T06:19:38.899Z,1005.85
2018-11-23T06:20:38.933Z,1005.85
2018-11-23T06:21:39.138Z,1005.85
2018-11-23T06:22:39.006Z,1005.87
2018-11-23T06:23:38.908Z,1005.82
2018-11-23T06:24:38.851Z,1005.83
2018-11-23T06:25:38.836Z,1005.84
2018-11-23T06:26:38.859Z,1005.86
2018-11-23T06:27:38.816Z,1005.87
2018-11-23T06:28:38.836Z,1005.85
2018-11-23T06:29:38.799Z,1005.84
2018-11-23T06:30:38.796Z,1005.87
2018-11-23T06:31:38.841Z,1005.82
2018-11-23T06:32:38.766Z,1005.86
2018-11-23T06:33:38.793Z,1005.81
2018-11-23T06:34:38.747Z,1005.83
2018-11-23T06:35:38.760Z,1005.83
2018-11-23T06:36:38.766Z,1005.86
2018-11-23T06:37:38.755Z,1005.88
2018-11-23T06:38:38.711Z,1005.84
2018-11-23T06:39:38.696Z,1005.87
2018-11-23T06:40:38.686Z,1005.84
2018-11-23T06:41:38.730Z,1005.86
2018-11-23T06:42:42.273Z,1005.85
2018-11-23T06:43:38.856Z,1005.77
2018-11-23T06:44:38.650Z,1005.78
2018-11-23T06:45:38.634Z,1005.81
2018-11-23T06:46:38.655Z,1005.76
2018-11-23T06:47:38.614Z,1005.78
2018-11-23T06:48:38.610Z,1005.84
2018-11-23T06:49:38.608Z,1005.86
2018-11-23T06:50:38.593Z,1005.85
2018-11-23T06:51:38.639Z,1005.82
2018-11-23T06:52:38.586Z,1005.84
2018-11-23T06:53:38.591Z,1005.86
2018-11-23T06:54:38.545Z,1005.84
2018-11-23T06:55:39.438Z,1005.85
2018-11-23T06:56:38.555Z,1005.84
2018-11-23T06:57:38.514Z,1005.86
2018-11-23T06:58:38.596Z,1005.86
2018-11-23T06:59:38.492Z,1005.90
2018-11-23T07:00:46.644Z,1005.89
2018-11-23T07:01:38.507Z,1005.84
2018-11-23T07:02:38.732Z,1005.87
2018-11-23T07:03:46.293Z,1005.84
2018-11-23T07:04:38.442Z,1005.84
2018-11-23T07:05:38.439Z,1005.80
2018-11-23T07:06:38.454Z,1005.84
2018-11-23T07:07:38.417Z,1005.84
2018-11-23T07:08:38.430Z,1005.85
2018-11-23T07:09:38.391Z,1005.90
2018-11-23T07:10:38.388Z,1005.88
2018-11-23T07:11:38.400Z,1005.88
2018-11-23T07:12:38.363Z,1005.87
2018-11-23T07:13:38.365Z,1005.83
2018-11-23T07:14:38.342Z,1005.87
2018-11-23T07:15:38.344Z,1005.88
2018-11-23T07:16:38.354Z,1005.88
2018-11-23T07:17:38.321Z,1005.84
2018-11-23T07:18:38.302Z,1005.82
2018-11-23T07:19:38.348Z,1005.83
2018-11-23T07:20:38.284Z,1005.85
2018-11-23T07:21:38.496Z,1005.92
2018-11-23T07:22:38.259Z,1005.86
2018-11-23T07:23:38.290Z,1005.84
2018-11-23T07:24:38.248Z,1005.85
2018-11-23T07:25:38.275Z,1005.86
2018-11-23T07:26:38.247Z,1005.87
2018-11-23T07:27:38.209Z,1005.86
2018-11-23T07:28:38.199Z,1005.87
2018-11-23T07:29:38.194Z,1005.84
2018-11-23T07:30:38.180Z,1005.88
2018-11-23T07:31:38.206Z,1005.91
2018-11-23T07:32:38.182Z,1005.94
2018-11-23T07:33:38.148Z,1005.98
2018-11-23T07:34:38.142Z,1005.94
2018-11-23T07:35:38.129Z,1005.92
2018-11-23T07:36:38.148Z,1005.90
2018-11-23T07:37:38.110Z,1005.92
2018-11-23T07:38:38.113Z,1005.90
2018-11-23T07:39:38.089Z,1005.90
2018-11-23T07:40:38.079Z,1005.91
2018-11-23T07:41:38.100Z,1005.88
2018-11-23T07:42:38.067Z,1005.97
2018-11-23T07:43:38.047Z,1005.98
2018-11-23T07:44:38.052Z,1005.97
2018-11-23T07:45:38.028Z,1005.96
2018-11-23T07:46:38.053Z,1005.90
2018-11-23T07:47:38.013Z,1005.95
2018-11-23T07:48:37.997Z,1005.99
2018-11-23T07:49:37.987Z,1005.94
2018-11-23T07:50:37.993Z,1005.98
2018-11-23T07:51:39.278Z,1005.98
2018-11-23T07:52:37.957Z,1005.94
2018-11-23T07:53:37.951Z,1005.91
2018-11-23T07:54:37.936Z,1005.94
2018-11-23T07:55:37.927Z,1005.91
2018-11-23T07:56:38.239Z,1005.91
2018-11-23T07:57:37.921Z,1005.90
2018-11-23T07:58:37.894Z,1005.94
2018-11-23T07:59:37.888Z,1005.90
2018-11-23T08:00:37.876Z,1005.90
2018-11-23T08:01:37.893Z,1005.85
2018-11-23T08:02:37.859Z,1005.88
2018-11-23T08:03:37.872Z,1005.90
2018-11-23T08:04:37.833Z,1005.91
2018-11-23T08:05:37.824Z,1005.88
2018-11-23T08:06:37.845Z,1005.88
2018-11-23T08:07:37.805Z,1005.82
2018-11-23T08:08:37.793Z,1005.91
2018-11-23T08:09:37.808Z,1005.87
2018-11-23T08:10:37.775Z,1005.81
2018-11-23T08:11:37.792Z,1005.87
2018-11-23T08:12:37.754Z,1005.84
2018-11-23T08:13:37.744Z,1005.83
2018-11-23T08:14:37.732Z,1005.88
2018-11-23T08:15:37.744Z,1005.86
2018-11-23T08:16:37.745Z,1005.82
2018-11-23T08:17:37.702Z,1005.82
2018-11-23T08:18:37.693Z,1005.84
2018-11-23T08:19:37.681Z,1005.82
2018-11-23T08:20:37.672Z,1005.81
2018-11-23T08:21:37.709Z,1005.79
2018-11-23T08:22:37.663Z,1005.85
2018-11-23T08:23:37.651Z,1005.78
2018-11-23T08:24:37.681Z,1005.80
2018-11-23T08:25:37.618Z,1005.83
2018-11-23T08:26:37.659Z,1005.80
2018-11-23T08:27:37.601Z,1005.81
2018-11-23T08:28:37.594Z,1005.85
2018-11-23T08:29:37.586Z,1005.78
2018-11-23T08:30:37.592Z,1005.76
2018-11-23T08:31:37.695Z,1005.75
2018-11-23T08:32:37.550Z,1005.78
2018-11-23T08:33:37.590Z,1005.75
2018-11-23T08:34:37.527Z,1005.79
2018-11-23T08:35:38.452Z,1005.79
2018-11-23T08:36:37.575Z,1005.82
2018-11-23T08:37:37.515Z,1005.83
2018-11-23T08:38:37.497Z,1005.82
2018-11-23T08:39:37.491Z,1005.87
2018-11-23T08:40:37.466Z,1005.80
2018-11-23T08:41:37.496Z,1005.83
2018-11-23T08:42:37.447Z,1005.83
2018-11-23T08:43:37.437Z,1005.82
2018-11-23T08:44:37.433Z,1005.84
2018-11-23T08:45:37.453Z,1005.87
2018-11-23T08:46:37.442Z,1005.79
2018-11-23T08:47:37.399Z,1005.83
2018-11-23T08:48:37.409Z,1005.80
2018-11-23T08:49:37.378Z,1005.80
2018-11-23T08:50:37.365Z,1005.76
2018-11-23T08:51:37.443Z,1005.79
2018-11-23T08:52:37.348Z,1005.74
2018-11-23T08:53:37.352Z,1005.72
2018-11-23T08:54:37.343Z,1005.75
2018-11-23T08:55:37.485Z,1005.81
2018-11-23T08:56:37.340Z,1005.79
2018-11-23T08:57:37.302Z,1005.77
2018-11-23T08:58:37.305Z,1005.76
2018-11-23T08:59:37.282Z,1005.83
2018-11-23T09:00:37.262Z,1005.78
2018-11-23T09:01:37.371Z,1005.81
2018-11-23T09:02:37.242Z,1005.76
2018-11-23T09:03:37.232Z,1005.74
2018-11-23T09:04:37.223Z,1005.77
2018-11-23T09:05:37.218Z,1005.76
2018-11-23T09:06:37.313Z,1005.77
2018-11-23T09:07:37.199Z,1005.80
2018-11-23T09:08:37.188Z,1005.78
2018-11-23T09:09:37.174Z,1005.77
2018-11-23T09:10:37.161Z,1005.73
2018-11-23T09:11:37.191Z,1005.76
2018-11-23T09:12:37.144Z,1005.76
2018-11-23T09:13:37.164Z,1005.77
2018-11-23T09:14:37.124Z,1005.77
2018-11-23T09:15:37.111Z,1005.81
2018-11-23T09:16:37.173Z,1005.80
2018-11-23T09:17:37.091Z,1005.79
2018-11-23T09:18:37.120Z,1005.77
2018-11-23T09:19:37.201Z,1005.76
2018-11-23T09:20:37.060Z,1005.73
2018-11-23T09:21:37.090Z,1005.74
2018-11-23T09:22:37.052Z,1005.63
2018-11-23T09:23:37.030Z,1005.64
2018-11-23T09:24:37.041Z,1005.66
2018-11-23T09:25:37.032Z,1005.67
2018-11-23T09:26:37.028Z,1005.65
2018-11-23T09:27:36.990Z,1005.65
2018-11-23T09:28:36.978Z,1005.65
2018-11-23T09:29:36.968Z,1005.65
2018-11-23T09:30:36.958Z,1005.68
2018-11-23T09:31:37.001Z,1005.67
2018-11-23T09:32:36.937Z,1005.65
2018-11-23T09:33:36.931Z,1005.59
2018-11-23T09:34:36.918Z,1005.55
2018-11-23T09:35:36.906Z,1005.57
2018-11-23T09:36:36.924Z,1005.61
2018-11-23T09:37:36.917Z,1005.56
2018-11-23T09:38:36.879Z,1005.54
2018-11-23T09:39:36.865Z,1005.54
2018-11-23T09:40:36.912Z,1005.56
2018-11-23T09:41:36.875Z,1005.53
2018-11-23T09:42:36.850Z,1005.52
2018-11-23T09:43:36.876Z,1005.52
2018-11-23T09:44:36.814Z,1005.50
2018-11-23T09:45:36.805Z,1005.57
2018-11-23T09:46:36.830Z,1005.57
2018-11-23T09:47:36.822Z,1005.59
2018-11-23T09:48:36.776Z,1005.66
2018-11-23T09:49:36.789Z,1005.67
2018-11-23T09:50:36.757Z,1005.66
2018-11-23T09:51:36.863Z,1005.65
2018-11-23T09:52:36.744Z,1005.62
2018-11-23T09:53:36.725Z,1005.59
2018-11-23T09:54:36.714Z,1005.59
2018-11-23T09:55:36.737Z,1005.50
2018-11-23T09:56:37.289Z,1005.50
2018-11-23T09:57:36.686Z,1005.42
2018-11-23T09:58:39.390Z,1005.51
2018-11-23T09:59:37.661Z,1005.50
2018-11-23T10:00:36.683Z,1005.50
2018-11-23T10:01:36.675Z,1005.48
2018-11-23T10:02:36.634Z,1005.49
2018-11-23T10:03:36.656Z,1005.55
2018-11-23T10:04:36.611Z,1005.47
2018-11-23T10:05:44.728Z,1005.43
2018-11-23T10:06:36.636Z,1005.42
2018-11-23T10:07:36.599Z,1005.41
2018-11-23T10:08:37.511Z,1005.45
2018-11-23T10:09:36.566Z,1005.44
2018-11-23T10:10:36.548Z,1005.45
2018-11-23T10:11:36.610Z,1005.40
2018-11-23T10:12:36.527Z,1005.43
2018-11-23T10:13:36.521Z,1005.45
2018-11-23T10:14:36.518Z,1005.39
2018-11-23T10:15:36.533Z,1005.35
2018-11-23T10:16:36.517Z,1005.37
2018-11-23T10:17:36.478Z,1005.34
2018-11-23T10:18:36.504Z,1005.36
2018-11-23T10:19:36.454Z,1005.27
2018-11-23T10:20:36.446Z,1005.28
2018-11-23T10:21:36.465Z,1005.27
2018-11-23T10:22:36.425Z,1005.28
2018-11-23T10:23:36.444Z,1005.29
2018-11-23T10:24:36.402Z,1005.29
2018-11-23T10:25:36.394Z,1005.33
2018-11-23T10:26:36.567Z,1005.32
2018-11-23T10:27:44.537Z,1005.31
2018-11-23T10:28:36.771Z,1005.29
2018-11-23T10:29:36.378Z,1005.24
2018-11-23T10:30:36.345Z,1005.29
2018-11-23T10:31:36.436Z,1005.24
2018-11-23T10:32:36.325Z,1005.27
2018-11-23T10:33:36.318Z,1005.24
2018-11-23T10:34:36.305Z,1005.20
2018-11-23T10:35:36.289Z,1005.24
2018-11-23T10:36:36.333Z,1005.22
2018-11-23T10:37:36.268Z,1005.16
2018-11-23T10:38:36.265Z,1005.21
2018-11-23T10:39:36.292Z,1005.19
2018-11-23T10:40:36.249Z,1005.16
2018-11-23T10:41:36.257Z,1005.15
2018-11-23T10:42:36.222Z,1005.14
2018-11-23T10:43:36.207Z,1005.12
2018-11-23T10:44:36.252Z,1005.09
2018-11-23T10:45:36.187Z,1005.11
2018-11-23T10:46:36.211Z,1005.11
2018-11-23T10:47:36.164Z,1005.06
2018-11-23T10:48:36.156Z,1005.10
2018-11-23T10:49:36.147Z,1005.05
2018-11-23T10:50:36.194Z,1005.00
2018-11-23T10:51:36.152Z,1004.95
2018-11-23T10:52:36.112Z,1004.98
2018-11-23T10:53:36.105Z,1004.95
2018-11-23T10:54:36.092Z,1004.96
2018-11-23T10:55:36.089Z,1004.96
2018-11-23T10:56:36.124Z,1005.00
2018-11-23T10:57:36.061Z,1004.97
2018-11-23T10:58:36.052Z,1004.97
2018-11-23T10:59:36.051Z,1004.91
2018-11-23T11:00:36.030Z,1004.94
2018-11-23T11:01:36.052Z,1004.92
2018-11-23T11:02:36.026Z,1004.89
2018-11-23T11:03:36.160Z,1004.89
2018-11-23T11:04:35.993Z,1004.90
2018-11-23T11:05:35.975Z,1004.89
2018-11-23T11:06:36.025Z,1004.89
2018-11-23T11:07:43.603Z,1004.93
2018-11-23T11:08:35.948Z,1004.89
2018-11-23T11:09:35.946Z,1004.79
2018-11-23T11:10:35.968Z,1004.81
2018-11-23T11:11:35.964Z,1004.84
2018-11-23T11:12:35.905Z,1004.92
2018-11-23T11:13:35.913Z,1004.85
2018-11-23T11:14:43.703Z,1004.82
2018-11-23T11:15:35.878Z,1004.71
2018-11-23T11:16:35.901Z,1004.73
2018-11-23T11:17:35.935Z,1004.65
2018-11-23T11:18:35.846Z,1004.54
2018-11-23T11:19:35.837Z,1004.49
2018-11-23T11:20:35.848Z,1004.46
2018-11-23T11:21:35.845Z,1004.44
2018-11-23T11:22:35.808Z,1004.33
2018-11-23T11:23:35.816Z,1004.45
2018-11-23T11:24:35.786Z,1004.32
2018-11-23T11:25:35.772Z,1004.33
2018-11-23T11:26:35.789Z,1004.34
2018-11-23T11:27:35.753Z,1004.33
2018-11-23T11:28:35.790Z,1004.38
2018-11-23T11:29:35.732Z,1004.30
2018-11-23T11:30:35.739Z,1004.34
2018-11-23T11:31:35.741Z,1004.37
2018-11-23T11:32:35.710Z,1004.30
2018-11-23T11:33:35.726Z,1004.23
2018-11-23T11:34:35.682Z,1004.16
2018-11-23T11:35:35.773Z,1004.11
2018-11-23T11:36:35.685Z,1004.20
2018-11-23T11:37:35.708Z,1004.12
2018-11-23T11:38:35.666Z,1004.13
2018-11-23T11:39:35.634Z,1004.15
2018-11-23T11:40:35.692Z,1004.12
2018-11-23T11:41:35.649Z,1004.13
2018-11-23T11:42:43.618Z,1004.10
2018-11-23T11:43:35.632Z,1004.14
2018-11-23T11:44:35.693Z,1004.21
2018-11-23T11:45:35.799Z,1004.20
2018-11-23T11:46:35.587Z,1004.18
2018-11-23T11:47:35.631Z,1004.20
2018-11-23T11:48:35.656Z,1004.16
2018-11-23T11:49:35.649Z,1004.14
2018-11-23T11:50:35.522Z,1004.20
2018-11-23T11:51:35.540Z,1004.10
2018-11-23T11:52:35.501Z,1004.07
2018-11-23T11:53:35.502Z,1004.08
2018-11-23T11:54:35.703Z,1004.02
2018-11-23T11:55:35.464Z,1004.04
2018-11-23T11:56:36.787Z,1003.94
2018-11-23T11:57:35.443Z,1003.99
2018-11-23T11:58:35.446Z,1003.95
2018-11-23T11:59:35.464Z,1003.87
2018-11-23T12:00:35.593Z,1003.82
2018-11-23T12:01:35.674Z,1003.78
2018-11-23T12:02:35.410Z,1003.82
2018-11-23T12:03:35.377Z,1003.81
2018-11-23T12:04:35.380Z,1003.73
2018-11-23T12:05:35.432Z,1003.74